createdAt,value
2022-11-16T00:00:16.816Z,99885.72
2022-11-16T00:00:48.120Z,99883.75
2022-11-16T00:01:22.840Z,99882.22
2022-11-16T00:01:54.241Z,99881.81
2022-11-16T00:02:25.608Z,99888.81
2022-11-16T00:02:57.015Z,99900.50
2022-11-16T00:03:29.799Z,99895.03
2022-11-16T00:04:03.243Z,99895.41
2022-11-16T00:04:34.638Z,99892.69
2022-11-16T00:05:06.350Z,99893.47
2022-11-16T00:05:37.829Z,99888.00
2022-11-16T00:06:10.657Z,99888.00
2022-11-16T00:06:42.068Z,99895.03
2022-11-16T00:07:13.445Z,99886.84
2022-11-16T00:07:45.421Z,99882.56
2022-11-16T00:08:16.739Z,99895.03
2022-11-16T00:09:09.753Z,99885.66
2022-11-16T00:09:41.071Z,99886.44
2022-11-16T00:10:12.780Z,99888.38
2022-11-16T00:10:44.105Z,99884.88
2022-11-16T00:11:19.032Z,99879.81
2022-11-16T00:11:52.887Z,99890.72
2022-11-16T00:12:24.389Z,99881.75
2022-11-16T00:12:55.699Z,99890.31
2022-11-16T00:13:27.015Z,99884.09
2022-11-16T00:13:58.396Z,99885.63
2022-11-16T00:14:32.748Z,99885.63
2022-11-16T00:15:05.257Z,99886.81
2022-11-16T00:15:36.607Z,99878.22
2022-11-16T00:16:13.073Z,99892.66
2022-11-16T00:16:44.563Z,99887.97
2022-11-16T00:17:15.875Z,99887.59
2022-11-16T00:17:47.199Z,99878.22
2022-11-16T00:18:18.551Z,99883.28
2022-11-16T00:18:56.434Z,99886.00
2022-11-16T00:19:28.443Z,99891.47
2022-11-16T00:19:59.737Z,99894.97
2022-11-16T00:20:31.081Z,99887.19
2022-11-16T00:21:05.285Z,99886.78
2022-11-16T00:21:36.921Z,99886.81
2022-11-16T00:22:08.257Z,99889.16
2022-11-16T00:22:39.613Z,99884.88
2022-11-16T00:23:10.933Z,99891.09
2022-11-16T00:23:42.253Z,99888.38
2022-11-16T00:24:15.708Z,99887.59
2022-11-16T00:24:47.103Z,99883.69
2022-11-16T00:25:18.614Z,99887.97
2022-11-16T00:25:50.614Z,99886.78
2022-11-16T00:26:22.347Z,99884.06
2022-11-16T00:26:55.019Z,99880.97
2022-11-16T00:27:26.462Z,99879.41
2022-11-16T00:27:57.823Z,99880.97
2022-11-16T00:28:29.176Z,99887.97
2022-11-16T00:29:00.564Z,99883.31
2022-11-16T00:29:31.900Z,99889.16
2022-11-16T00:30:04.159Z,99879.00
2022-11-16T00:30:35.555Z,99882.50
2022-11-16T00:31:07.475Z,99885.25
2022-11-16T00:31:38.795Z,99887.59
2022-11-16T00:32:10.546Z,99885.25
2022-11-16T00:32:41.868Z,99875.50
2022-11-16T00:33:17.787Z,99887.16
2022-11-16T00:33:50.978Z,99888.72
2022-11-16T00:34:23.462Z,99887.94
2022-11-16T00:34:54.831Z,99885.63
2022-11-16T00:35:26.251Z,99880.53
2022-11-16T00:35:57.858Z,99879.38
2022-11-16T00:36:29.186Z,99878.59
2022-11-16T00:37:00.640Z,99878.59
2022-11-16T00:37:32.334Z,99882.84
2022-11-16T00:38:03.800Z,99886.34
2022-11-16T00:38:35.654Z,99885.56
2022-11-16T00:39:07.317Z,99883.63
2022-11-16T00:39:38.611Z,99884.38
2022-11-16T00:40:10.762Z,99880.88
2022-11-16T00:40:42.063Z,99883.22
2022-11-16T00:41:13.402Z,99884.75
2022-11-16T00:41:45.473Z,99884.00
2022-11-16T00:42:17.634Z,99882.44
2022-11-16T00:42:49.249Z,99882.03
2022-11-16T00:43:20.774Z,99878.13
2022-11-16T00:43:52.111Z,99873.84
2022-11-16T00:44:23.457Z,99876.59
2022-11-16T00:44:54.820Z,99877.75
2022-11-16T00:45:26.209Z,99881.25
2022-11-16T00:45:57.595Z,99870.75
2022-11-16T00:46:28.925Z,99876.97
2022-11-16T00:47:00.423Z,99880.84
2022-11-16T00:47:31.766Z,99878.91
2022-11-16T00:48:03.130Z,99869.97
2022-11-16T00:48:34.895Z,99871.19
2022-11-16T00:49:06.881Z,99876.19
2022-11-16T00:49:38.519Z,99877.75
2022-11-16T00:50:10.000Z,99876.59
2022-11-16T00:50:41.359Z,99866.84
2022-11-16T00:51:12.804Z,99875.84
2022-11-16T00:51:44.165Z,99860.66
2022-11-16T00:52:15.497Z,99868.84
2022-11-16T00:52:46.881Z,99866.47
2022-11-16T00:53:19.772Z,99869.19
2022-11-16T00:53:51.101Z,99872.31
2022-11-16T00:54:22.522Z,99868.41
2022-11-16T00:54:54.047Z,99873.06
2022-11-16T00:55:25.360Z,99869.56
2022-11-16T00:56:45.499Z,99871.91
2022-11-16T00:57:16.808Z,99870.72
2022-11-16T00:57:48.185Z,99871.91
2022-11-16T00:58:19.529Z,99864.91
2022-11-16T00:58:50.889Z,99866.44
2022-11-16T00:59:22.192Z,99863.72
2022-11-16T00:59:53.559Z,99871.91
2022-11-16T01:00:24.899Z,99870.34
2022-11-16T01:00:56.312Z,99862.16
2022-11-16T01:01:27.852Z,99872.31
2022-11-16T01:01:59.177Z,99867.63
2022-11-16T01:02:30.527Z,99873.44
2022-11-16T01:03:02.043Z,99869.94
2022-11-16T01:03:34.763Z,99864.09
2022-11-16T01:04:06.130Z,99866.81
2022-11-16T01:04:37.458Z,99870.31
2022-11-16T01:05:09.708Z,99857.09
2022-11-16T01:05:41.186Z,99864.09
2022-11-16T01:06:14.878Z,99858.22
2022-11-16T01:06:46.200Z,99854.34
2022-11-16T01:07:17.586Z,99865.66
2022-11-16T01:07:50.282Z,99856.28
2022-11-16T01:08:21.594Z,99857.47
2022-11-16T01:08:53.013Z,99856.31
2022-11-16T01:09:24.528Z,99859.41
2022-11-16T01:09:55.846Z,99864.88
2022-11-16T01:10:28.039Z,99875.38
2022-11-16T01:11:17.933Z,99869.91
2022-11-16T01:12:08.045Z,99873.44
2022-11-16T01:12:39.787Z,99867.59
2022-11-16T01:13:11.514Z,99863.28
2022-11-16T01:13:42.852Z,99871.88
2022-11-16T01:14:15.296Z,99871.47
2022-11-16T01:14:47.735Z,99873.03
2022-11-16T01:15:21.619Z,99869.53
2022-11-16T01:15:52.956Z,99869.91
2022-11-16T01:16:24.873Z,99859.81
2022-11-16T01:16:56.204Z,99866.78
2022-11-16T01:17:27.618Z,99867.56
2022-11-16T01:17:59.219Z,99863.28
2022-11-16T01:18:30.674Z,99861.34
2022-11-16T01:19:02.908Z,99862.13
2022-11-16T01:19:34.304Z,99857.44
2022-11-16T01:20:08.370Z,99858.22
2022-11-16T01:20:40.306Z,99856.66
2022-11-16T01:21:11.632Z,99846.91
2022-11-16T01:21:42.940Z,99856.66
2022-11-16T01:22:14.384Z,99858.59
2022-11-16T01:22:46.672Z,99853.56
2022-11-16T01:23:18.001Z,99862.88
2022-11-16T01:23:49.392Z,99849.28
2022-11-16T01:24:20.931Z,99862.88
2022-11-16T01:24:52.349Z,99862.88
2022-11-16T01:25:23.899Z,99858.22
2022-11-16T01:26:01.604Z,99857.44
2022-11-16T01:26:33.084Z,99866.38
2022-11-16T01:27:04.702Z,99858.22
2022-11-16T01:27:36.886Z,99863.66
2022-11-16T01:28:08.218Z,99867.56
2022-11-16T01:28:39.530Z,99854.31
2022-11-16T01:29:10.847Z,99861.72
2022-11-16T01:29:42.415Z,99858.22
2022-11-16T01:30:15.059Z,99854.31
2022-11-16T01:30:48.620Z,99856.25
2022-11-16T01:31:20.167Z,99857.03
2022-11-16T01:31:51.667Z,99855.06
2022-11-16T01:32:23.665Z,99855.84
2022-11-16T01:32:54.961Z,99857.03
2022-11-16T01:33:26.312Z,99862.09
2022-11-16T01:33:57.712Z,99854.69
2022-11-16T01:34:29.047Z,99855.84
2022-11-16T01:35:00.494Z,99856.63
2022-11-16T01:35:31.786Z,99857.41
2022-11-16T01:36:08.153Z,99853.91
2022-11-16T01:36:39.520Z,99851.16
2022-11-16T01:37:11.002Z,99846.91
2022-11-16T01:37:42.431Z,99849.63
2022-11-16T01:38:13.755Z,99847.66
2022-11-16T01:38:46.527Z,99851.16
2022-11-16T01:39:17.954Z,99845.72
2022-11-16T01:39:50.528Z,99841.03
2022-11-16T01:40:21.887Z,99836.75
2022-11-16T01:40:53.374Z,99840.66
2022-11-16T01:41:26.130Z,99836.38
2022-11-16T01:41:57.452Z,99841.03
2022-11-16T01:42:30.271Z,99845.31
2022-11-16T01:43:01.619Z,99847.25
2022-11-16T01:43:49.789Z,99844.13
2022-11-16T01:44:32.835Z,99846.09
2022-11-16T01:45:15.731Z,99848.81
2022-11-16T01:45:48.149Z,99850.00
2022-11-16T01:46:20.442Z,99848.03
2022-11-16T01:46:51.809Z,99845.72
2022-11-16T01:47:23.117Z,99850.00
2022-11-16T01:47:55.002Z,99853.09
2022-11-16T01:48:29.844Z,99850.38
2022-11-16T01:49:08.082Z,99847.63
2022-11-16T01:49:43.359Z,99845.69
2022-11-16T01:50:18.223Z,99844.13
2022-11-16T01:50:50.011Z,99849.59
2022-11-16T01:51:22.463Z,99843.38
2022-11-16T01:51:58.139Z,99843.38
2022-11-16T01:52:33.340Z,99850.38
2022-11-16T01:53:07.331Z,99850.41
2022-11-16T01:53:38.761Z,99844.53
2022-11-16T01:54:12.943Z,99851.53
2022-11-16T01:54:46.384Z,99852.31
2022-11-16T01:55:17.866Z,99848.03
2022-11-16T01:55:49.549Z,99850.38
2022-11-16T01:56:21.703Z,99856.59
2022-11-16T01:56:55.439Z,99848.81
2022-11-16T01:57:34.047Z,99848.41
2022-11-16T01:58:06.578Z,99848.00
2022-11-16T01:58:38.268Z,99848.78
2022-11-16T01:59:10.567Z,99838.69
2022-11-16T01:59:44.355Z,99843.38
2022-11-16T02:00:17.900Z,99848.00
2022-11-16T02:00:49.322Z,99839.06
2022-11-16T02:01:20.758Z,99843.34
2022-11-16T02:01:52.248Z,99844.91
2022-11-16T02:02:23.733Z,99840.22
2022-11-16T02:02:55.068Z,99837.09
2022-11-16T02:03:26.528Z,99836.31
2022-11-16T02:03:58.041Z,99837.88
2022-11-16T02:04:29.963Z,99840.94
2022-11-16T02:05:02.384Z,99840.94
2022-11-16T02:06:16.776Z,99846.41
2022-11-16T02:07:06.302Z,99835.16
2022-11-16T02:08:02.420Z,99835.53
2022-11-16T02:09:13.355Z,99835.53
2022-11-16T02:09:58.193Z,99834.78
2022-11-16T02:10:52.838Z,99839.44
2022-11-16T02:11:42.405Z,99837.50
2022-11-16T02:12:19.754Z,99837.50
2022-11-16T02:13:06.268Z,99828.13
2022-11-16T02:13:44.314Z,99823.84
2022-11-16T02:14:22.941Z,99832.03
2022-11-16T02:15:12.744Z,99828.13
2022-11-16T02:16:03.699Z,99821.13
2022-11-16T02:17:00.723Z,99821.13
2022-11-16T02:17:56.013Z,99831.28
2022-11-16T02:18:38.243Z,99823.47
2022-11-16T02:19:37.302Z,99823.09
2022-11-16T02:20:45.522Z,99825.03
2022-11-16T02:21:39.271Z,99820.75
2022-11-16T02:22:39.397Z,99819.22
2022-11-16T02:23:44.810Z,99814.53
2022-11-16T02:24:58.942Z,99819.56
2022-11-16T02:25:57.795Z,99822.31
2022-11-16T02:26:56.557Z,99816.84
2022-11-16T02:27:30.670Z,99821.53
2022-11-16T02:28:30.143Z,99822.31
2022-11-16T02:29:19.574Z,99822.31
2022-11-16T02:29:53.231Z,99819.22
2022-11-16T02:30:24.844Z,99809.84
2022-11-16T02:31:00.136Z,99814.53
2022-11-16T02:31:37.359Z,99819.56
2022-11-16T02:32:16.445Z,99816.47
2022-11-16T02:32:57.347Z,99819.22
2022-11-16T02:33:36.110Z,99815.69
2022-11-16T02:34:11.071Z,99816.09
2022-11-16T02:34:47.609Z,99816.06
2022-11-16T02:35:33.854Z,99817.66
2022-11-16T02:36:08.917Z,99810.25
2022-11-16T02:36:43.125Z,99822.31
2022-11-16T02:37:18.657Z,99818.81
2022-11-16T02:37:58.696Z,99819.56
2022-11-16T02:38:33.741Z,99820.34
2022-11-16T02:39:10.332Z,99821.91
2022-11-16T02:39:44.564Z,99821.13
2022-11-16T02:40:20.263Z,99818.41
2022-11-16T02:40:57.240Z,99820.72
2022-11-16T02:41:33.557Z,99813.72
2022-11-16T02:42:10.334Z,99814.50
2022-11-16T02:42:48.817Z,99821.50
2022-11-16T02:43:28.457Z,99818.78
2022-11-16T02:44:05.596Z,99821.50
2022-11-16T02:44:42.787Z,99817.63
2022-11-16T02:45:20.278Z,99817.22
2022-11-16T02:45:55.346Z,99815.28
2022-11-16T02:46:31.112Z,99816.03
2022-11-16T02:47:09.238Z,99813.72
2022-11-16T02:47:41.911Z,99809.44
2022-11-16T02:48:19.830Z,99815.66
2022-11-16T02:48:55.955Z,99817.22
2022-11-16T02:49:30.514Z,99819.94
2022-11-16T02:50:07.509Z,99822.25
2022-11-16T02:50:39.671Z,99812.94
2022-11-16T02:51:11.796Z,99813.31
2022-11-16T02:51:44.708Z,99813.31
2022-11-16T02:52:17.819Z,99815.63
2022-11-16T02:52:49.511Z,99809.38
2022-11-16T02:53:22.466Z,99815.63
2022-11-16T02:54:17.963Z,99805.13
2022-11-16T02:54:49.338Z,99802.03
2022-11-16T02:55:21.497Z,99810.94
2022-11-16T02:55:52.881Z,99803.16
2022-11-16T02:56:24.704Z,99805.53
2022-11-16T02:56:57.858Z,99802.75
2022-11-16T02:57:38.945Z,99816.03
2022-11-16T02:58:12.817Z,99807.50
2022-11-16T02:58:44.761Z,99810.59
2022-11-16T02:59:17.742Z,99813.72
2022-11-16T02:59:52.760Z,99816.03
2022-11-16T03:00:28.382Z,99818.78
2022-11-16T03:01:12.373Z,99812.53
2022-11-16T03:02:01.720Z,99814.50
2022-11-16T03:02:50.142Z,99816.38
2022-11-16T03:03:30.728Z,99814.84
2022-11-16T03:04:11.663Z,99812.88
2022-11-16T03:04:50.035Z,99818.34
2022-11-16T03:05:33.006Z,99818.72
2022-11-16T03:06:18.444Z,99817.94
2022-11-16T03:06:51.449Z,99809.38
2022-11-16T03:07:29.069Z,99813.66
2022-11-16T03:08:08.329Z,99813.66
2022-11-16T03:08:43.977Z,99815.63
2022-11-16T03:09:24.281Z,99810.94
2022-11-16T03:09:57.694Z,99813.66
2022-11-16T03:10:49.284Z,99814.84
2022-11-16T03:11:39.207Z,99813.66
2022-11-16T03:12:17.862Z,99818.31
2022-11-16T03:12:49.353Z,99814.84
2022-11-16T03:13:23.798Z,99821.81
2022-11-16T03:13:59.040Z,99818.31
2022-11-16T03:14:48.583Z,99821.03
2022-11-16T03:15:20.224Z,99818.72
2022-11-16T03:15:54.844Z,99819.13
2022-11-16T03:16:38.213Z,99823.00
2022-11-16T03:17:47.194Z,99827.69
2022-11-16T03:18:22.241Z,99823.03
2022-11-16T03:18:58.321Z,99819.91
2022-11-16T03:19:39.993Z,99826.91
2022-11-16T03:20:26.960Z,99828.84
2022-11-16T03:21:08.536Z,99820.66
2022-11-16T03:21:47.520Z,99826.13
2022-11-16T03:22:31.138Z,99820.66
2022-11-16T03:23:08.221Z,99825.72
2022-11-16T03:23:39.639Z,99826.91
2022-11-16T03:24:11.062Z,99815.63
2022-11-16T03:24:42.874Z,99820.66
2022-11-16T03:25:17.885Z,99821.84
2022-11-16T03:25:52.490Z,99823.81
2022-11-16T03:26:28.927Z,99830.41
2022-11-16T03:27:29.022Z,99820.28
2022-11-16T03:28:25.298Z,99828.84
2022-11-16T03:29:22.362Z,99827.72
2022-11-16T03:30:08.131Z,99830.03
2022-11-16T03:30:50.567Z,99827.31
2022-11-16T03:31:29.705Z,99826.53
2022-11-16T03:32:30.395Z,99831.97
2022-11-16T03:33:19.986Z,99828.47
2022-11-16T03:33:56.026Z,99827.72
2022-11-16T03:35:26.571Z,99830.03
2022-11-16T03:36:20.343Z,99823.03
2022-11-16T03:36:53.553Z,99820.28
2022-11-16T03:37:26.131Z,99824.56
2022-11-16T03:37:59.459Z,99825.75
2022-11-16T03:38:34.191Z,99817.22
2022-11-16T03:39:10.651Z,99818.78
2022-11-16T03:39:44.284Z,99819.94
2022-11-16T03:40:17.623Z,99825.75
2022-11-16T03:40:51.059Z,99827.31
2022-11-16T03:41:24.824Z,99822.25
2022-11-16T03:41:58.398Z,99810.63
2022-11-16T03:42:30.490Z,99818.00
2022-11-16T03:43:04.608Z,99817.63
2022-11-16T03:43:38.774Z,99825.41
2022-11-16T03:44:13.483Z,99827.38
2022-11-16T03:45:36.698Z,99821.91
2022-11-16T03:46:08.012Z,99823.09
2022-11-16T03:46:42.027Z,99826.59
2022-11-16T03:47:13.901Z,99829.31
2022-11-16T03:47:45.718Z,99831.63
2022-11-16T03:48:17.076Z,99832.03
2022-11-16T03:48:48.391Z,99825.03
2022-11-16T03:49:22.477Z,99820.75
2022-11-16T03:49:53.808Z,99836.31
2022-11-16T03:50:25.480Z,99838.69
2022-11-16T03:50:56.794Z,99830.91
2022-11-16T03:51:28.287Z,99838.69
2022-11-16T03:51:59.643Z,99839.44
2022-11-16T03:52:31.241Z,99832.44
2022-11-16T03:53:02.548Z,99832.44
2022-11-16T03:53:33.992Z,99835.19
2022-11-16T03:54:05.443Z,99834.00
2022-11-16T03:54:36.796Z,99838.69
2022-11-16T03:55:08.591Z,99836.72
2022-11-16T03:55:40.011Z,99836.72
2022-11-16T03:56:11.320Z,99826.63
2022-11-16T03:56:42.621Z,99822.34
2022-11-16T03:57:18.093Z,99828.16
2022-11-16T03:57:49.403Z,99835.19
2022-11-16T03:58:20.760Z,99828.56
2022-11-16T03:58:52.100Z,99822.75
2022-11-16T03:59:23.532Z,99835.97
2022-11-16T03:59:54.980Z,99834.03
2022-11-16T04:00:26.330Z,99830.13
2022-11-16T04:00:57.824Z,99833.25
2022-11-16T04:01:29.369Z,99838.69
2022-11-16T04:02:00.791Z,99834.03
2022-11-16T04:02:32.136Z,99839.84
2022-11-16T04:03:03.534Z,99842.59
2022-11-16T04:03:34.920Z,99835.94
2022-11-16T04:04:06.430Z,99837.91
2022-11-16T04:04:56.381Z,99837.13
2022-11-16T04:05:46.661Z,99841.41
2022-11-16T04:06:36.570Z,99846.09
2022-11-16T04:07:27.397Z,99839.47
2022-11-16T04:08:17.370Z,99844.94
2022-11-16T04:09:07.074Z,99852.34
2022-11-16T04:09:56.952Z,99841.06
2022-11-16T04:10:47.276Z,99850.81
2022-11-16T04:11:39.456Z,99846.53
2022-11-16T04:12:29.725Z,99845.75
2022-11-16T04:13:20.627Z,99854.31
2022-11-16T04:14:10.429Z,99849.28
2022-11-16T04:15:01.115Z,99851.22
2022-11-16T04:15:50.800Z,99846.16
2022-11-16T04:16:40.531Z,99852.44
2022-11-16T04:17:35.412Z,99844.25
2022-11-16T04:18:28.667Z,99847.38
2022-11-16T04:19:19.002Z,99850.88
2022-11-16T04:20:09.139Z,99848.16
2022-11-16T04:20:58.824Z,99855.56
2022-11-16T04:21:57.203Z,99841.56
2022-11-16T04:22:52.912Z,99850.94
2022-11-16T04:23:43.032Z,99844.69
2022-11-16T04:24:19.256Z,99842.38
2022-11-16T04:24:56.732Z,99838.09
2022-11-16T04:25:34.402Z,99838.88
2022-11-16T04:26:08.158Z,99851.72
2022-11-16T04:27:00.835Z,99849.78
2022-11-16T04:27:50.911Z,99849.00
2022-11-16T04:28:26.438Z,99848.22
2022-11-16T04:28:57.765Z,99847.47
2022-11-16T04:29:29.766Z,99851.72
2022-11-16T04:30:03.406Z,99853.69
2022-11-16T04:30:53.402Z,99849.41
2022-11-16T04:31:43.059Z,99849.41
2022-11-16T04:32:33.250Z,99851.34
2022-11-16T04:33:23.368Z,99843.94
2022-11-16T04:34:13.057Z,99844.34
2022-11-16T04:35:02.827Z,99849.03
2022-11-16T04:35:52.486Z,99846.72
2022-11-16T04:36:42.550Z,99850.22
2022-11-16T04:37:36.277Z,99849.84
2022-11-16T04:38:07.627Z,99854.91
2022-11-16T04:38:38.988Z,99856.47
2022-11-16T04:39:10.344Z,99854.50
2022-11-16T04:39:41.655Z,99858.41
2022-11-16T04:40:13.538Z,99852.97
2022-11-16T04:40:44.908Z,99862.31
2022-11-16T04:41:34.969Z,99856.09
2022-11-16T04:42:15.208Z,99860.75
2022-11-16T04:42:54.874Z,99865.44
2022-11-16T04:43:26.326Z,99864.66
2022-11-16T04:43:57.947Z,99854.53
2022-11-16T04:44:49.258Z,99857.66
2022-11-16T04:45:40.474Z,99859.22
2022-11-16T04:46:30.606Z,99861.94
2022-11-16T04:47:07.532Z,99855.75
2022-11-16T04:47:39.247Z,99858.84
2022-11-16T04:48:12.004Z,99860.44
2022-11-16T04:48:43.319Z,99862.78
2022-11-16T04:49:14.695Z,99860.03
2022-11-16T04:49:46.020Z,99860.03
2022-11-16T04:50:18.681Z,99860.44
2022-11-16T04:50:50.069Z,99863.53
2022-11-16T04:51:21.367Z,99851.88
2022-11-16T04:51:52.748Z,99863.53
2022-11-16T04:52:24.099Z,99860.81
2022-11-16T04:52:55.428Z,99863.53
2022-11-16T04:53:27.874Z,99853.81
2022-11-16T04:53:59.227Z,99862.78
2022-11-16T04:54:30.591Z,99854.59
2022-11-16T04:55:02.047Z,99860.03
2022-11-16T04:55:33.916Z,99860.81
2022-11-16T04:56:05.342Z,99858.50
2022-11-16T04:56:36.677Z,99858.84
2022-11-16T04:57:08.191Z,99857.72
2022-11-16T04:57:40.129Z,99862.78
2022-11-16T04:58:11.543Z,99859.25
2022-11-16T04:58:42.876Z,99858.50
2022-11-16T04:59:14.225Z,99864.72
2022-11-16T04:59:45.553Z,99861.63
2022-11-16T05:00:17.460Z,99866.66
2022-11-16T05:00:48.790Z,99855.41
2022-11-16T05:01:40.141Z,99860.84
2022-11-16T05:02:11.812Z,99866.28
2022-11-16T05:02:43.129Z,99864.34
2022-11-16T05:03:14.547Z,99859.69
2022-11-16T05:03:45.845Z,99868.25
2022-11-16T05:04:17.191Z,99862.78
2022-11-16T05:04:48.612Z,99864.75
2022-11-16T05:05:20.068Z,99854.63
2022-11-16T05:05:51.408Z,99858.53
2022-11-16T05:06:22.739Z,99865.16
2022-11-16T05:06:54.197Z,99856.59
2022-11-16T05:07:26.173Z,99858.13
2022-11-16T05:07:57.563Z,99859.31
2022-11-16T05:08:28.929Z,99867.50
2022-11-16T05:09:00.259Z,99865.53
2022-11-16T05:09:31.620Z,99870.22
2022-11-16T05:10:03.841Z,99863.22
2022-11-16T05:10:35.228Z,99863.22
2022-11-16T05:11:06.548Z,99870.22
2022-11-16T05:11:37.853Z,99854.66
2022-11-16T05:12:11.081Z,99866.72
2022-11-16T05:12:42.627Z,99860.09
2022-11-16T05:13:14.108Z,99864.00
2022-11-16T05:13:45.426Z,99872.56
2022-11-16T05:14:16.745Z,99870.25
2022-11-16T05:14:48.209Z,99861.69
2022-11-16T05:15:19.845Z,99871.00
2022-11-16T05:15:51.253Z,99863.22
2022-11-16T05:16:22.606Z,99864.03
2022-11-16T05:16:54.108Z,99869.09
2022-11-16T05:17:26.983Z,99873.38
2022-11-16T05:17:58.312Z,99878.03
2022-11-16T05:18:29.659Z,99870.25
2022-11-16T05:19:19.534Z,99873.75
2022-11-16T05:20:09.391Z,99872.22
2022-11-16T05:20:59.442Z,99876.50
2022-11-16T05:21:30.748Z,99879.63
2022-11-16T05:22:02.094Z,99883.50
2022-11-16T05:22:33.658Z,99889.75
2022-11-16T05:23:05.008Z,99883.91
2022-11-16T05:23:55.174Z,99874.22
2022-11-16T05:24:35.375Z,99876.50
2022-11-16T05:25:10.702Z,99877.72
2022-11-16T05:25:42.035Z,99874.22
2022-11-16T05:26:13.396Z,99876.56
2022-11-16T05:26:44.748Z,99878.91
2022-11-16T05:27:18.051Z,99875.78
2022-11-16T05:27:49.415Z,99879.28
2022-11-16T05:28:20.729Z,99881.63
2022-11-16T05:28:52.022Z,99885.13
2022-11-16T05:29:23.343Z,99876.56
2022-11-16T05:29:55.176Z,99875.03
2022-11-16T05:30:26.586Z,99879.28
2022-11-16T05:30:57.940Z,99879.28
2022-11-16T05:31:29.315Z,99877.34
2022-11-16T05:32:01.508Z,99882.81
2022-11-16T05:32:32.864Z,99877.34
2022-11-16T05:33:04.178Z,99876.56
2022-11-16T05:33:35.511Z,99882.03
2022-11-16T05:34:06.946Z,99886.69
2022-11-16T05:34:39.129Z,99883.56
2022-11-16T05:35:10.558Z,99876.97
2022-11-16T05:35:41.903Z,99876.56
2022-11-16T05:36:13.208Z,99882.03
2022-11-16T05:36:44.540Z,99885.16
2022-11-16T05:37:16.338Z,99885.16
2022-11-16T05:37:47.663Z,99888.66
2022-11-16T05:38:19.746Z,99880.47
2022-11-16T05:38:55.176Z,99887.88
2022-11-16T05:39:27.693Z,99889.81
2022-11-16T05:39:59.108Z,99883.59
2022-11-16T05:40:32.836Z,99886.72
2022-11-16T05:41:04.205Z,99886.72
2022-11-16T05:41:35.541Z,99884.78
2022-11-16T05:42:08.046Z,99884.78
2022-11-16T05:42:39.375Z,99882.06
2022-11-16T05:43:11.114Z,99886.72
2022-11-16T05:43:42.416Z,99881.66
2022-11-16T05:44:14.816Z,99884.38
2022-11-16T05:44:46.184Z,99890.63
2022-11-16T05:45:20.998Z,99882.84
2022-11-16T05:45:52.697Z,99883.22
2022-11-16T05:46:24.594Z,99879.75
2022-11-16T05:46:56.125Z,99890.63
2022-11-16T05:47:27.537Z,99889.13
2022-11-16T05:47:58.880Z,99892.97
2022-11-16T05:48:30.185Z,99893.75
2022-11-16T05:49:01.672Z,99902.72
2022-11-16T05:49:33.006Z,99895.31
2022-11-16T05:50:04.666Z,99896.09
2022-11-16T05:50:41.334Z,99900.38
2022-11-16T05:51:14.212Z,99897.66
2022-11-16T05:51:47.241Z,99902.31
2022-11-16T05:52:18.665Z,99895.75
2022-11-16T05:52:50.000Z,99897.31
2022-11-16T05:53:21.306Z,99903.53
2022-11-16T05:53:52.724Z,99905.47
2022-11-16T05:54:26.077Z,99910.16
2022-11-16T05:54:57.393Z,99906.66
2022-11-16T05:55:28.766Z,99900.03
2022-11-16T05:56:00.180Z,99901.59
2022-11-16T05:56:32.684Z,99908.59
2022-11-16T05:57:04.132Z,99896.91
2022-11-16T05:57:35.485Z,99905.09
2022-11-16T05:58:06.860Z,99901.59
2022-11-16T05:58:38.176Z,99903.16
2022-11-16T05:59:15.219Z,99911.72
2022-11-16T05:59:47.706Z,99907.81
2022-11-16T06:00:19.365Z,99905.50
2022-11-16T06:00:51.217Z,99903.16
2022-11-16T06:01:22.661Z,99897.34
2022-11-16T06:01:54.025Z,99903.56
2022-11-16T06:02:25.348Z,99913.66
2022-11-16T06:02:56.720Z,99902.41
2022-11-16T06:03:29.592Z,99908.63
2022-11-16T06:04:01.910Z,99907.06
2022-11-16T06:04:33.748Z,99904.34
2022-11-16T06:05:05.463Z,99904.34
2022-11-16T06:05:40.437Z,99914.47
2022-11-16T06:06:12.442Z,99915.22
2022-11-16T06:06:44.002Z,99910.94
2022-11-16T06:07:15.446Z,99899.28
2022-11-16T06:07:46.796Z,99908.22
2022-11-16T06:08:18.091Z,99901.63
2022-11-16T06:08:49.416Z,99906.69
2022-11-16T06:09:39.175Z,99898.50
2022-11-16T06:10:10.541Z,99906.28
2022-11-16T06:10:41.847Z,99902.00
2022-11-16T06:11:14.336Z,99904.38
2022-11-16T06:11:45.679Z,99907.88
2022-11-16T06:12:17.011Z,99911.75
2022-11-16T06:12:48.338Z,99898.53
2022-11-16T06:13:19.724Z,99895.44
2022-11-16T06:13:51.449Z,99902.03
2022-11-16T06:14:22.924Z,99903.97
2022-11-16T06:14:54.253Z,99902.03
2022-11-16T06:15:25.816Z,99905.94
2022-11-16T06:15:57.191Z,99905.94
2022-11-16T06:16:28.626Z,99907.88
2022-11-16T06:16:59.968Z,99904.38
2022-11-16T06:17:33.729Z,99908.66
2022-11-16T06:18:05.664Z,99907.88
2022-11-16T06:18:39.063Z,99901.66
2022-11-16T06:19:10.428Z,99899.31
2022-11-16T06:19:41.890Z,99905.97
2022-11-16T06:20:13.256Z,99896.22
2022-11-16T06:20:44.557Z,99895.84
2022-11-16T06:21:17.988Z,99897.00
2022-11-16T06:21:49.297Z,99894.66
2022-11-16T06:22:20.657Z,99896.63
2022-11-16T06:23:41.196Z,99897.78
2022-11-16T06:24:12.527Z,99901.28
2022-11-16T06:24:43.824Z,99900.91
2022-11-16T06:25:15.148Z,99893.13
2022-11-16T06:25:46.474Z,99896.22
2022-11-16T06:26:17.833Z,99898.16
2022-11-16T06:26:49.199Z,99897.00
2022-11-16T06:27:20.535Z,99900.13
2022-11-16T06:27:51.956Z,99905.56
2022-11-16T06:28:23.469Z,99893.91
2022-11-16T06:28:54.896Z,99888.84
2022-11-16T06:29:28.598Z,99899.34
2022-11-16T06:30:00.787Z,99899.75
2022-11-16T06:30:32.165Z,99900.91
2022-11-16T06:31:04.173Z,99900.50
2022-11-16T06:31:35.536Z,99895.06
2022-11-16T06:32:06.859Z,99898.56
2022-11-16T06:32:38.225Z,99893.91
2022-11-16T06:33:09.605Z,99897.41
2022-11-16T06:33:41.268Z,99899.34
2022-11-16T06:34:12.658Z,99904.41
2022-11-16T06:34:44.005Z,99903.63
2022-11-16T06:35:15.815Z,99902.47
2022-11-16T06:35:47.240Z,99897.03
2022-11-16T06:36:18.722Z,99908.69
2022-11-16T06:36:50.112Z,99907.13
2022-11-16T06:37:21.429Z,99903.25
2022-11-16T06:37:52.792Z,99909.84
2022-11-16T06:38:24.176Z,99909.84
2022-11-16T06:38:55.559Z,99893.91
2022-11-16T06:39:26.889Z,99903.63
2022-11-16T06:39:58.184Z,99902.88
2022-11-16T06:40:29.595Z,99900.53
2022-11-16T06:41:01.519Z,99900.16
2022-11-16T06:41:41.228Z,99908.69
2022-11-16T06:43:02.430Z,99903.66
2022-11-16T06:43:33.757Z,99902.88
2022-11-16T06:44:05.184Z,99915.31
2022-11-16T06:44:36.812Z,99911.03
2022-11-16T06:45:08.768Z,99912.22
2022-11-16T06:45:40.122Z,99907.19
2022-11-16T06:46:11.643Z,99911.88
2022-11-16T06:46:42.975Z,99913.38
2022-11-16T06:47:14.561Z,99917.31
2022-11-16T06:47:46.514Z,99911.47
2022-11-16T06:48:19.004Z,99916.94
2022-11-16T06:48:50.392Z,99910.69
2022-11-16T06:49:21.726Z,99913.44
2022-11-16T06:49:53.057Z,99912.25
2022-11-16T06:50:24.383Z,99919.25
2022-11-16T06:50:55.769Z,99923.94
2022-11-16T06:51:27.085Z,99917.31
2022-11-16T06:51:58.879Z,99924.31
2022-11-16T06:52:30.208Z,99925.88
2022-11-16T06:53:01.563Z,99925.09
2022-11-16T06:53:32.917Z,99925.09
2022-11-16T06:54:04.501Z,99926.66
2022-11-16T06:54:35.929Z,99923.56
2022-11-16T06:55:07.681Z,99925.50
2022-11-16T06:55:39.077Z,99922.00
2022-11-16T06:56:13.631Z,99925.09
2022-11-16T06:56:45.017Z,99929.38
2022-11-16T06:57:16.496Z,99919.66